createdAt,value
2017-08-27T00:01:46.898Z,66.98
2017-08-27T00:04:13.360Z,66.69
2017-08-27T00:06:39.741Z,66.77
2017-08-27T00:09:06.374Z,66.64
2017-08-27T00:11:32.742Z,66.83
2017-08-27T00:13:59.113Z,66.99
2017-08-27T00:16:25.529Z,67.18
2017-08-27T00:18:51.899Z,66.99
2017-08-27T00:21:18.429Z,66.79
2017-08-27T00:23:44.846Z,67.06
2017-08-27T00:26:11.211Z,67.28
2017-08-27T00:28:37.575Z,67.48
2017-08-27T00:31:03.923Z,66.87
2017-08-27T00:33:30.310Z,67.92
2017-08-27T00:35:56.699Z,68.08
2017-08-27T00:38:23.072Z,69.00
2017-08-27T00:40:49.477Z,68.85
2017-08-27T00:43:15.904Z,69.17
2017-08-27T00:45:42.296Z,68.34
2017-08-27T00:48:08.715Z,68.08
2017-08-27T00:50:35.129Z,68.30
2017-08-27T00:53:01.562Z,68.16
2017-08-27T00:55:28.021Z,67.61
2017-08-27T00:57:54.435Z,67.42
2017-08-27T01:00:20.830Z,67.45
2017-08-27T01:02:47.256Z,68.70
2017-08-27T01:05:13.710Z,68.93
2017-08-27T01:07:40.197Z,69.51
2017-08-27T01:10:06.575Z,68.92
2017-08-27T01:12:32.934Z,68.38
2017-08-27T01:14:59.387Z,69.04
2017-08-27T01:17:25.771Z,68.53
2017-08-27T01:19:52.183Z,68.36
2017-08-27T01:22:18.660Z,68.59
2017-08-27T01:24:45.083Z,68.31
2017-08-27T01:27:11.517Z,68.00
2017-08-27T01:29:37.889Z,68.67
2017-08-27T01:32:04.287Z,69.37
2017-08-27T01:34:30.696Z,69.06
2017-08-27T01:36:57.080Z,68.99
2017-08-27T01:39:23.434Z,69.72
2017-08-27T01:41:49.808Z,70.03
2017-08-27T01:44:16.208Z,70.53
2017-08-27T01:46:42.577Z,70.39
2017-08-27T01:49:08.963Z,69.53
2017-08-27T01:51:37.194Z,69.04
2017-08-27T01:54:03.686Z,70.45
2017-08-27T01:56:30.045Z,71.11
2017-08-27T01:58:56.388Z,71.74
2017-08-27T02:01:23.043Z,71.51
2017-08-27T02:03:49.424Z,70.66
2017-08-27T02:06:16.632Z,70.25
2017-08-27T02:08:43.796Z,69.84
2017-08-27T02:11:11.138Z,70.48
2017-08-27T02:13:37.650Z,70.53
2017-08-27T02:16:04.010Z,69.76
2017-08-27T02:18:30.356Z,69.16
2017-08-27T02:20:56.719Z,69.41
2017-08-27T02:23:23.105Z,69.36
2017-08-27T02:25:49.503Z,69.28
2017-08-27T02:28:15.921Z,70.74
2017-08-27T02:30:42.292Z,70.20
2017-08-27T02:33:08.659Z,70.97
2017-08-27T02:35:35.029Z,71.50
2017-08-27T02:38:01.408Z,71.44
2017-08-27T02:40:27.809Z,71.07
2017-08-27T02:42:54.164Z,71.32
2017-08-27T02:45:20.529Z,70.82
2017-08-27T02:47:46.930Z,71.23
2017-08-27T02:50:13.298Z,70.51
2017-08-27T02:52:39.675Z,70.54
2017-08-27T02:55:06.053Z,70.36
2017-08-27T02:57:32.833Z,69.84
2017-08-27T02:59:59.251Z,69.84
2017-08-27T03:02:25.641Z,70.50
2017-08-27T03:04:52.046Z,71.18
2017-08-27T03:07:18.439Z,71.15
2017-08-27T03:09:44.860Z,71.36
2017-08-27T03:12:11.222Z,70.98
2017-08-27T03:14:37.615Z,71.34
2017-08-27T03:17:03.999Z,71.96
2017-08-27T03:19:30.377Z,71.71
2017-08-27T03:21:56.762Z,71.43
2017-08-27T03:24:23.157Z,71.35
2017-08-27T03:26:49.568Z,70.55
2017-08-27T03:29:15.962Z,70.91
2017-08-27T03:31:42.334Z,71.80
2017-08-27T03:34:08.729Z,71.67
2017-08-27T03:36:35.952Z,71.41
2017-08-27T03:39:02.382Z,70.69
2017-08-27T03:41:28.734Z,71.92
2017-08-27T03:43:55.090Z,71.36
2017-08-27T03:46:21.467Z,71.70
2017-08-27T03:48:47.833Z,71.73
2017-08-27T03:51:14.241Z,72.10
2017-08-27T03:53:40.632Z,72.34
2017-08-27T03:56:07.027Z,72.12
2017-08-27T03:58:33.437Z,72.21
2017-08-27T04:00:59.855Z,71.88
2017-08-27T04:03:26.232Z,71.88
2017-08-27T04:05:52.593Z,71.72
2017-08-27T04:08:18.996Z,71.20
2017-08-27T04:10:45.382Z,71.84
2017-08-27T04:13:11.748Z,71.44
2017-08-27T04:15:38.130Z,72.03
2017-08-27T04:18:04.516Z,72.60
2017-08-27T04:20:30.897Z,72.80
2017-08-27T04:22:57.276Z,72.27
2017-08-27T04:25:23.701Z,71.89
2017-08-27T04:27:50.070Z,71.77
2017-08-27T04:30:16.472Z,72.35
2017-08-27T04:32:42.906Z,72.20
2017-08-27T04:35:09.313Z,72.49
2017-08-27T04:37:35.696Z,72.44
2017-08-27T04:40:02.040Z,72.50
2017-08-27T04:42:28.422Z,73.03
2017-08-27T04:44:54.798Z,72.22
2017-08-27T04:47:21.223Z,72.01
2017-08-27T04:49:47.590Z,71.19
2017-08-27T04:52:13.999Z,71.27
2017-08-27T04:54:40.431Z,70.94
2017-08-27T04:57:06.774Z,71.09
2017-08-27T04:59:33.126Z,71.32
2017-08-27T05:01:59.509Z,71.69
2017-08-27T05:04:25.892Z,71.26
2017-08-27T05:06:52.242Z,71.17
2017-08-27T05:09:18.732Z,70.93
2017-08-27T05:11:45.089Z,71.80
2017-08-27T05:14:11.455Z,72.20
2017-08-27T05:16:37.779Z,72.70
2017-08-27T05:19:04.144Z,72.04
2017-08-27T05:21:30.572Z,71.40
2017-08-27T05:23:56.925Z,71.37
2017-08-27T05:26:23.330Z,72.17
2017-08-27T05:28:49.719Z,72.61
2017-08-27T05:31:16.107Z,73.54
2017-08-27T05:33:42.512Z,73.81
2017-08-27T05:36:08.896Z,73.76
2017-08-27T05:38:35.279Z,74.55
2017-08-27T05:41:01.657Z,74.82
2017-08-27T05:43:28.036Z,74.43
2017-08-27T05:45:54.386Z,73.99
2017-08-27T05:48:20.758Z,74.54
2017-08-27T05:50:47.194Z,74.35
2017-08-27T05:53:13.599Z,74.06
2017-08-27T05:55:40.003Z,73.60
2017-08-27T05:58:06.355Z,73.05
2017-08-27T06:00:32.738Z,72.80
2017-08-27T06:02:59.079Z,72.95
2017-08-27T06:05:25.464Z,73.17
2017-08-27T06:07:51.838Z,72.73
2017-08-27T06:10:18.246Z,72.60
2017-08-27T06:12:44.584Z,73.12
2017-08-27T06:15:10.957Z,73.25
2017-08-27T06:17:37.324Z,73.62
2017-08-27T06:20:03.687Z,73.42
2017-08-27T06:22:30.096Z,74.27
2017-08-27T06:24:56.463Z,73.67
2017-08-27T06:27:22.848Z,73.75
2017-08-27T06:29:49.198Z,73.22
2017-08-27T06:32:15.552Z,73.64
2017-08-27T06:34:41.892Z,73.48
2017-08-27T06:37:08.259Z,73.48
2017-08-27T06:39:34.634Z,74.28
2017-08-27T06:42:01.021Z,74.33
2017-08-27T06:44:27.418Z,74.21
2017-08-27T06:46:53.800Z,74.13
2017-08-27T06:49:20.161Z,73.79
2017-08-27T06:51:46.556Z,73.53
2017-08-27T06:54:12.935Z,73.57
2017-08-27T06:56:39.296Z,73.29
2017-08-27T06:59:05.668Z,73.77
2017-08-27T07:01:32.087Z,73.09
2017-08-27T07:03:58.445Z,73.50
2017-08-27T07:06:24.842Z,72.72
2017-08-27T07:08:51.231Z,72.35
2017-08-27T07:11:17.616Z,72.09
2017-08-27T07:13:44.002Z,71.71
2017-08-27T07:16:10.414Z,71.24
2017-08-27T07:18:36.816Z,71.19
2017-08-27T07:21:03.225Z,71.15
2017-08-27T07:23:29.606Z,70.68
2017-08-27T07:25:55.987Z,69.77
2017-08-27T07:28:22.380Z,69.27
2017-08-27T07:30:48.731Z,68.94
2017-08-27T07:33:15.101Z,68.04
2017-08-27T07:35:41.502Z,68.55
2017-08-27T07:38:07.909Z,67.96
2017-08-27T07:40:34.290Z,66.79
2017-08-27T07:43:00.681Z,66.81
2017-08-27T07:45:27.061Z,66.80
2017-08-27T07:47:53.520Z,67.00
2017-08-27T07:50:19.894Z,67.12
2017-08-27T07:52:46.283Z,66.63
2017-08-27T07:55:12.647Z,65.97
2017-08-27T07:57:39.050Z,66.04
2017-08-27T08:00:05.438Z,66.09
2017-08-27T08:02:31.840Z,65.51
2017-08-27T08:04:58.237Z,65.32
2017-08-27T08:07:24.703Z,64.68
2017-08-27T08:09:51.130Z,64.45
2017-08-27T08:12:17.537Z,63.99
2017-08-27T08:14:43.899Z,64.02
2017-08-27T08:17:10.274Z,63.22
2017-08-27T08:19:36.669Z,63.15
2017-08-27T08:22:03.079Z,63.94
2017-08-27T08:24:29.428Z,63.28
2017-08-27T08:26:55.810Z,61.70
2017-08-27T08:29:22.185Z,62.89
2017-08-27T08:31:48.559Z,62.70
2017-08-27T08:34:14.926Z,62.23
2017-08-27T08:36:41.280Z,60.77
2017-08-27T08:39:07.656Z,60.98
2017-08-27T08:41:34.058Z,60.33
2017-08-27T08:44:00.455Z,59.89
2017-08-27T08:46:26.826Z,60.03
2017-08-27T08:48:53.195Z,60.81
2017-08-27T08:51:19.582Z,59.02
2017-08-27T08:53:45.949Z,59.08
2017-08-27T08:56:12.340Z,59.16
2017-08-27T08:58:38.704Z,58.48
2017-08-27T09:01:05.114Z,59.19
2017-08-27T09:03:31.512Z,59.29
2017-08-27T09:05:57.893Z,58.02
2017-08-27T09:08:24.270Z,58.58
2017-08-27T09:10:50.683Z,55.74
2017-08-27T09:13:17.067Z,56.43
2017-08-27T09:15:43.493Z,57.54
2017-08-27T09:18:09.834Z,57.77
2017-08-27T09:20:36.212Z,56.44
2017-08-27T09:23:02.617Z,55.05
2017-08-27T09:25:28.985Z,54.63
2017-08-27T09:27:55.357Z,54.76
2017-08-27T09:30:21.783Z,54.41
2017-08-27T09:32:48.187Z,53.99
2017-08-27T09:35:14.579Z,53.66
2017-08-27T09:37:40.956Z,53.60
2017-08-27T09:40:07.343Z,53.14
2017-08-27T09:42:33.736Z,52.71
2017-08-27T09:45:00.131Z,52.53
2017-08-27T09:47:26.522Z,52.94
2017-08-27T09:49:52.917Z,52.97
2017-08-27T09:52:19.278Z,53.22
2017-08-27T09:54:45.639Z,52.54
2017-08-27T09:57:12.020Z,51.04
2017-08-27T09:59:38.404Z,49.69
2017-08-27T10:02:04.776Z,50.90
2017-08-27T10:04:31.141Z,52.27
2017-08-27T10:06:57.499Z,48.65
2017-08-27T10:09:23.913Z,49.80
2017-08-27T10:11:50.289Z,51.45
2017-08-27T10:14:16.675Z,50.94
2017-08-27T10:16:43.059Z,49.27
2017-08-27T10:19:09.456Z,49.30
2017-08-27T10:21:35.795Z,49.14
2017-08-27T10:24:02.186Z,47.71
2017-08-27T10:26:28.583Z,45.77
2017-08-27T10:28:54.957Z,45.32
2017-08-27T10:31:21.291Z,45.25
2017-08-27T10:33:47.701Z,45.14
2017-08-27T10:36:14.103Z,42.94
2017-08-27T10:38:40.473Z,41.52
2017-08-27T10:41:06.845Z,43.10
2017-08-27T10:43:33.182Z,44.16
2017-08-27T10:45:59.556Z,43.48
2017-08-27T10:48:25.907Z,44.87
2017-08-27T10:50:52.246Z,44.58
2017-08-27T10:53:18.645Z,44.11
2017-08-27T10:55:45.022Z,43.98
2017-08-27T10:58:11.387Z,43.59
2017-08-27T11:00:37.755Z,43.47
2017-08-27T11:03:04.128Z,42.51
2017-08-27T11:05:30.471Z,42.38
2017-08-27T11:07:57.008Z,41.86
2017-08-27T11:10:23.372Z,42.19
2017-08-27T11:12:49.765Z,39.98
2017-08-27T11:15:16.149Z,40.54
2017-08-27T11:17:42.540Z,41.57
2017-08-27T11:20:08.911Z,41.97
2017-08-27T11:22:35.293Z,42.74
2017-08-27T11:25:01.649Z,42.93
2017-08-27T11:27:27.993Z,40.90
2017-08-27T11:29:54.409Z,42.55
2017-08-27T11:32:20.770Z,43.41
2017-08-27T11:34:47.138Z,41.94
2017-08-27T11:37:13.522Z,42.34
2017-08-27T11:39:39.919Z,39.35
2017-08-27T11:42:06.690Z,40.57
2017-08-27T11:44:33.130Z,40.57
2017-08-27T11:47:00.305Z,40.78
2017-08-27T11:49:26.683Z,43.31
2017-08-27T11:51:53.072Z,43.68
2017-08-27T11:54:19.435Z,43.62
2017-08-27T11:56:45.809Z,44.10
2017-08-27T11:59:12.190Z,41.75
2017-08-27T12:01:38.594Z,42.98
2017-08-27T12:04:04.947Z,40.36
2017-08-27T12:06:31.314Z,42.65
2017-08-27T12:08:57.665Z,41.56
2017-08-27T12:11:24.048Z,42.80
2017-08-27T12:13:50.427Z,43.80
2017-08-27T12:16:16.801Z,42.88
2017-08-27T12:18:43.225Z,41.89
2017-08-27T12:21:09.603Z,40.52
2017-08-27T12:23:35.972Z,38.03
2017-08-27T12:26:02.360Z,35.88
2017-08-27T12:28:28.737Z,37.79
2017-08-27T12:30:55.105Z,40.91
2017-08-27T12:33:21.507Z,42.05
2017-08-27T12:35:47.906Z,43.36
2017-08-27T12:38:14.330Z,37.86
2017-08-27T12:40:40.700Z,40.53
2017-08-27T12:43:07.068Z,40.85
2017-08-27T12:45:33.444Z,40.22
2017-08-27T12:47:59.832Z,42.48
2017-08-27T12:50:26.293Z,42.98
2017-08-27T12:52:52.705Z,43.17
2017-08-27T12:55:19.083Z,41.99
2017-08-27T12:57:45.520Z,41.65
2017-08-27T13:00:11.949Z,41.37
2017-08-27T13:02:39.726Z,41.93
2017-08-27T13:05:06.149Z,42.28
2017-08-27T13:07:32.648Z,41.86
2017-08-27T13:09:59.139Z,41.98
2017-08-27T13:12:25.691Z,42.31
2017-08-27T13:14:52.080Z,41.08
2017-08-27T13:17:18.537Z,40.76
2017-08-27T13:19:45.008Z,40.67
2017-08-27T13:22:11.406Z,40.61
2017-08-27T13:24:37.785Z,38.09
2017-08-27T13:27:04.180Z,38.91
2017-08-27T13:29:30.617Z,37.89
2017-08-27T13:31:56.985Z,39.64
2017-08-27T13:34:23.358Z,40.69
2017-08-27T13:36:49.766Z,40.85
2017-08-27T13:39:16.183Z,39.95
2017-08-27T13:41:42.583Z,40.98
2017-08-27T13:44:09.002Z,41.22
2017-08-27T13:46:35.416Z,38.35
2017-08-27T13:49:01.811Z,40.15
2017-08-27T13:51:28.167Z,40.65
2017-08-27T13:53:54.590Z,37.85
2017-08-27T13:56:20.973Z,37.26
2017-08-27T13:58:47.665Z,36.76
2017-08-27T14:01:14.124Z,36.77
2017-08-27T14:03:41.001Z,38.30
2017-08-27T14:06:07.378Z,39.39
2017-08-27T14:08:33.790Z,39.17
2017-08-27T14:11:00.209Z,39.26
2017-08-27T14:13:26.652Z,39.88
2017-08-27T14:15:53.044Z,40.00
2017-08-27T14:18:19.437Z,40.15
2017-08-27T14:20:45.866Z,39.29
2017-08-27T14:23:12.337Z,39.29
2017-08-27T14:25:39.358Z,39.75
2017-08-27T14:28:05.851Z,39.37
2017-08-27T14:30:32.252Z,39.07
2017-08-27T14:32:58.656Z,37.71
2017-08-27T14:35:25.057Z,35.65
2017-08-27T14:37:51.463Z,39.21
2017-08-27T14:40:17.850Z,36.90
2017-08-27T14:42:44.258Z,39.61
2017-08-27T14:45:10.618Z,38.74
2017-08-27T14:47:37.007Z,38.95
2017-08-27T14:50:03.410Z,39.23
2017-08-27T14:52:29.790Z,39.90
2017-08-27T14:54:56.222Z,39.97
2017-08-27T14:57:22.620Z,38.50
2017-08-27T14:59:49.081Z,39.20
2017-08-27T15:02:15.492Z,40.15
2017-08-27T15:04:41.875Z,40.25
2017-08-27T15:07:08.311Z,40.12
2017-08-27T15:09:34.709Z,39.75
2017-08-27T15:12:01.102Z,39.75
2017-08-27T15:14:27.500Z,41.39
2017-08-27T15:16:53.895Z,41.89
2017-08-27T15:19:20.301Z,41.30
2017-08-27T15:21:46.694Z,41.03
2017-08-27T15:24:13.107Z,40.92
2017-08-27T15:26:39.512Z,40.36
2017-08-27T15:29:05.924Z,41.06
2017-08-27T15:31:32.326Z,41.17
2017-08-27T15:33:58.699Z,40.55
2017-08-27T15:36:25.088Z,42.22
2017-08-27T15:38:51.497Z,40.82
2017-08-27T15:41:17.880Z,40.44
2017-08-27T15:43:44.271Z,41.28
2017-08-27T15:46:10.700Z,41.93
2017-08-27T15:48:37.128Z,41.90
2017-08-27T15:51:03.536Z,41.58
2017-08-27T15:53:29.933Z,40.80
2017-08-27T15:55:56.306Z,41.46
2017-08-27T15:58:22.727Z,42.51
2017-08-27T16:00:49.109Z,42.01
2017-08-27T16:03:15.510Z,41.61
2017-08-27T16:05:41.925Z,41.87
2017-08-27T16:08:08.411Z,41.65
2017-08-27T16:10:34.788Z,40.82
2017-08-27T16:13:01.205Z,41.72
2017-08-27T16:15:27.642Z,41.89
2017-08-27T16:17:54.023Z,41.78
2017-08-27T16:20:20.409Z,42.24
2017-08-27T16:22:46.830Z,41.97
2017-08-27T16:25:13.251Z,42.49
2017-08-27T16:27:39.662Z,42.56
2017-08-27T16:30:06.066Z,41.69
2017-08-27T16:32:32.485Z,43.21
2017-08-27T16:34:58.909Z,43.52
2017-08-27T16:37:25.329Z,43.42
2017-08-27T16:39:51.762Z,43.61
2017-08-27T16:42:18.520Z,44.02
2017-08-27T16:44:45.032Z,43.13
2017-08-27T16:47:23.616Z,43.06
2017-08-27T16:49:50.067Z,43.10
2017-08-27T16:52:16.610Z,44.18
2017-08-27T16:54:43.051Z,43.75
2017-08-27T16:57:09.452Z,43.93
2017-08-27T16:59:35.864Z,43.46
2017-08-27T17:02:02.324Z,43.28
2017-08-27T17:04:28.731Z,43.75
2017-08-27T17:06:55.164Z,43.34
2017-08-27T17:09:21.605Z,43.92
2017-08-27T17:11:48.101Z,43.96
2017-08-27T17:14:14.545Z,44.21
2017-08-27T17:16:41.013Z,44.33
2017-08-27T17:19:07.448Z,44.69
2017-08-27T17:21:33.935Z,44.82
2017-08-27T17:24:00.394Z,45.16
2017-08-27T17:26:26.832Z,45.13
2017-08-27T17:28:53.271Z,45.21
2017-08-27T17:31:19.702Z,45.71
2017-08-27T17:33:46.859Z,45.60
2017-08-27T17:36:16.305Z,46.11
2017-08-27T17:38:43.621Z,46.83
2017-08-27T17:41:10.082Z,46.39
2017-08-27T17:43:36.529Z,46.88
2017-08-27T17:46:02.991Z,47.16
2017-08-27T17:48:29.472Z,47.54
2017-08-27T17:50:55.965Z,47.81
2017-08-27T17:53:22.706Z,48.01
2017-08-27T17:55:49.164Z,48.49
2017-08-27T17:58:15.634Z,49.22
2017-08-27T18:00:42.118Z,48.70
2017-08-27T18:03:08.585Z,48.50
2017-08-27T18:05:34.975Z,48.18
2017-08-27T18:08:01.402Z,48.44
2017-08-27T18:10:27.851Z,49.53
2017-08-27T18:12:54.294Z,50.03
2017-08-27T18:15:20.793Z,50.06
2017-08-27T18:17:47.250Z,50.49
2017-08-27T18:20:13.658Z,50.50
2017-08-27T18:22:40.090Z,50.69
2017-08-27T18:25:06.518Z,50.60
2017-08-27T18:27:32.929Z,51.06
2017-08-27T18:29:59.342Z,51.40
2017-08-27T18:32:25.827Z,51.81
2017-08-27T18:34:52.313Z,52.25
2017-08-27T18:37:18.708Z,52.63
2017-08-27T18:39:45.134Z,53.39
2017-08-27T18:42:11.553Z,53.52
2017-08-27T18:44:37.928Z,53.46
2017-08-27T18:47:04.283Z,53.37
2017-08-27T18:49:30.697Z,53.95
2017-08-27T18:51:57.049Z,53.89
2017-08-27T18:54:23.453Z,54.43
2017-08-27T18:56:49.938Z,54.43
2017-08-27T18:59:16.394Z,54.62
2017-08-27T19:01:42.868Z,54.62
2017-08-27T19:04:09.766Z,54.65
2017-08-27T19:06:36.259Z,55.70
2017-08-27T19:09:03.260Z,56.09
2017-08-27T19:11:29.778Z,55.33
2017-08-27T19:13:56.390Z,55.37
2017-08-27T19:16:22.838Z,55.70
2017-08-27T19:18:50.710Z,55.30
2017-08-27T19:21:17.225Z,54.57
2017-08-27T19:23:44.273Z,54.53
2017-08-27T19:26:11.678Z,55.16
2017-08-27T19:28:38.240Z,53.88
2017-08-27T19:31:04.931Z,54.47
2017-08-27T19:33:31.365Z,54.49
2017-08-27T19:35:57.806Z,55.38
2017-08-27T19:38:24.582Z,54.52
2017-08-27T19:40:51.085Z,54.48
2017-08-27T19:43:17.522Z,54.14
2017-08-27T19:45:43.996Z,55.15
2017-08-27T19:48:11.757Z,54.72
2017-08-27T19:50:38.627Z,55.38
2017-08-27T19:53:05.055Z,55.57
2017-08-27T19:55:31.591Z,55.23
2017-08-27T19:57:58.080Z,55.19
2017-08-27T20:00:24.534Z,54.53
2017-08-27T20:02:50.978Z,54.17
2017-08-27T20:05:17.374Z,55.25
2017-08-27T20:07:43.781Z,55.54
2017-08-27T20:10:10.271Z,55.19
2017-08-27T20:12:36.688Z,54.86
2017-08-27T20:15:03.140Z,55.43
2017-08-27T20:17:29.593Z,55.43
2017-08-27T20:19:55.984Z,55.32
2017-08-27T20:22:22.394Z,55.35
2017-08-27T20:24:49.148Z,56.13
2017-08-27T20:27:15.937Z,55.63
2017-08-27T20:29:42.319Z,55.11
2017-08-27T20:32:08.745Z,55.37
2017-08-27T20:34:35.913Z,55.51
2017-08-27T20:37:02.392Z,55.12
2017-08-27T20:39:28.846Z,57.05
2017-08-27T20:41:55.265Z,56.99
2017-08-27T20:44:21.734Z,56.33
2017-08-27T20:46:48.175Z,56.66
2017-08-27T20:49:14.575Z,56.58
2017-08-27T20:51:40.991Z,56.80
2017-08-27T20:54:07.424Z,56.69
2017-08-27T20:56:33.791Z,57.05
2017-08-27T20:59:00.311Z,57.12
2017-08-27T21:01:26.717Z,56.60
2017-08-27T21:03:53.130Z,57.24
2017-08-27T21:06:19.551Z,56.73
2017-08-27T21:08:45.985Z,56.74
2017-08-27T21:11:12.380Z,56.32
2017-08-27T21:13:38.773Z,56.72
2017-08-27T21:16:05.156Z,57.39
2017-08-27T21:18:31.555Z,57.09
2017-08-27T21:20:57.985Z,56.83
2017-08-27T21:23:24.440Z,56.69
2017-08-27T21:25:50.907Z,57.18
2017-08-27T21:28:17.286Z,57.96
2017-08-27T21:30:44.106Z,58.54
2017-08-27T21:33:10.557Z,57.92
2017-08-27T21:35:36.959Z,56.80
2017-08-27T21:38:03.591Z,58.56
2017-08-27T21:40:29.997Z,58.73
2017-08-27T21:42:56.382Z,59.01
2017-08-27T21:45:22.755Z,59.02
2017-08-27T21:47:49.759Z,57.82
2017-08-27T21:50:16.198Z,57.81
2017-08-27T21:52:42.679Z,57.53
2017-08-27T21:55:09.122Z,57.93
2017-08-27T21:57:35.508Z,58.48
2017-08-27T22:00:01.906Z,59.08
2017-08-27T22:02:28.258Z,59.37
2017-08-27T22:04:54.630Z,59.77
2017-08-27T22:07:21.015Z,60.58
2017-08-27T22:09:47.440Z,60.87
2017-08-27T22:12:13.852Z,60.72
2017-08-27T22:14:40.250Z,59.61
2017-08-27T22:17:06.622Z,59.16
2017-08-27T22:19:33.009Z,58.75
2017-08-27T22:21:59.434Z,58.68
2017-08-27T22:24:25.826Z,58.28
2017-08-27T22:26:52.244Z,59.00
2017-08-27T22:29:18.637Z,58.62
2017-08-27T22:31:45.007Z,58.44
2017-08-27T22:34:11.432Z,58.08
2017-08-27T22:36:37.832Z,58.32
2017-08-27T22:39:04.297Z,57.93
2017-08-27T22:41:30.718Z,58.72
2017-08-27T22:43:57.126Z,58.61
2017-08-27T22:46:23.504Z,58.59
2017-08-27T22:48:49.931Z,58.62
2017-08-27T22:51:16.304Z,59.30
2017-08-27T22:53:42.653Z,60.61
2017-08-27T22:56:09.087Z,62.31
2017-08-27T22:58:35.486Z,62.16
2017-08-27T23:01:01.901Z,61.50
2017-08-27T23:03:28.363Z,61.01
2017-08-27T23:05:54.737Z,60.33
2017-08-27T23:08:21.128Z,59.82
2017-08-27T23:10:47.507Z,59.67
2017-08-27T23:13:13.875Z,59.12
2017-08-27T23:15:40.248Z,59.65
2017-08-27T23:18:06.675Z,60.01
2017-08-27T23:20:33.073Z,60.75
2017-08-27T23:22:59.491Z,61.62
2017-08-27T23:25:25.857Z,62.14
2017-08-27T23:27:52.289Z,61.97
2017-08-27T23:30:18.698Z,60.98
2017-08-27T23:32:45.072Z,60.77
2017-08-27T23:35:11.472Z,59.90
2017-08-27T23:37:37.857Z,60.20
2017-08-27T23:40:04.287Z,59.83
2017-08-27T23:42:30.658Z,60.10
2017-08-27T23:44:57.052Z,59.39
2017-08-27T23:47:23.461Z,59.83
2017-08-27T23:49:51.284Z,59.76
2017-08-27T23:52:18.617Z,59.77
2017-08-27T23:54:45.039Z,61.17
2017-08-27T23:57:13.860Z,61.32
2017-08-27T23:59:40.388Z,61.51
